Flight Track Log - Related Links

Times and Time Zones

All times are in EDT time to prevent confusion due to time zone crossing. See the USC105 flight status page for this flight to view local times or setup timezone preferences in your user account.

Time Position Orientation Groundspeed Altitude Reporting Facility
EDT Latitude Longitude Course Direction KTS MPH feet Rate Location/Type
Tue 07:20:53 AM 42.2175 -83.5592 224° Southwest 115 132 1,900  Level FAA TRACON
Tue 07:21:12 AM 42.2117 -83.5678 228° Southwest 96 110 2,500 1,385 Climbing FAA TRACON
Tue 07:21:32 AM 42.2069 -83.5756 231° Southwest 88 101 2,800 1,024 Climbing FAA TRACON
Tue 07:21:53 AM 42.1986 -83.5847 219° Southwest 102 117 3,200 1,024 Climbing FAA TRACON
Tue 07:22:13 AM 42.1917 -83.5925 220° Southwest 105 121 3,500 1,077 Climbing FAA TRACON
Tue 07:22:32 AM 42.1847 -83.5994 217° Southwest 101 116 3,900 900 Climbing FAA TRACON
Tue 07:22:53 AM 42.1761 -83.6069 213° Southwest 97 112 4,100 750 Climbing FAA TRACON
Tue 07:23:12 AM 42.1694 -83.6147 221° Southwest 101 116 4,400 769 Climbing FAA TRACON
Tue 07:23:32 AM 42.1614 -83.6211 210° Southwest 114 131 4,600 900 Climbing FAA TRACON
Tue 07:23:52 AM 42.1517 -83.6292 212° Southwest 110 127 5,000 600 Climbing FAA TRACON
Tue 07:24:12 AM 42.1433 -83.6369 215° Southwest 115 132 5,000  Level FAA TRACON
Tue 07:24:33 AM 42.1336 -83.6453 212° Southwest 131 151 5,000  Level FAA TRACON
Tue 07:24:52 AM 42.1233 -83.6539 212° Southwest 144 166 5,000  Level FAA TRACON
Tue 07:25:12 AM 42.1106 -83.6633 209° Southwest 137 158 5,000  Level FAA TRACON
Tue 07:25:32 AM 42.1003 -83.6708 208° Southwest 138 159 5,000  Level FAA TRACON
Tue 07:25:52 AM 42.0903 -83.6803 215° Southwest 138 159 5,000  Level FAA TRACON
Tue 07:26:13 AM 42.0753 -83.6864 197° South 162 186 5,000  Level FAA TRACON
Tue 07:26:32 AM 42.0614 -83.6814 165° South 174 200 5,000  Level FAA TRACON
Tue 07:26:52 AM 42.0461 -83.6744 161° South 179 206 5,000  Level FAA TRACON
Tue 07:27:12 AM 42.0278 -83.6661 161° South 181 208 5,000  Level FAA TRACON
Tue 07:27:32 AM 42.0125 -83.6594 162° South 184 212 5,000  Level FAA TRACON
Tue 07:27:53 AM 41.9931 -83.6514 163° South 188 216 5,000  Level FAA TRACON
Tue 07:28:12 AM 41.9775 -83.6450 163° South 190 219 5,000  Level FAA TRACON
Tue 07:28:33 AM 41.9617 -83.6400 167° South 190 219 5,000  Level FAA TRACON
Tue 07:28:52 AM 41.9428 -83.6336 166° South 191 220 5,000 308 Level FAA TRACON
Tue 07:29:12 AM 41.9283 -83.6283 165° South 178 205 5,200 600 Climbing FAA TRACON
Tue 07:29:32 AM 41.9133 -83.6225 164° South 164 189 5,400 600 Climbing FAA TRACON
Tue 07:29:52 AM 41.8967 -83.6172 167° South 164 189 5,600 571 Climbing FAA TRACON
Tue 07:30:14 AM 41.8806 -83.6119 166° South 167 192 5,800 439 Climbing FAA TRACON
Tue 07:30:33 AM 41.8672 -83.6075 166° South 167 192 5,900 632 Climbing FAA TRACON
Tue 07:30:52 AM 41.8511 -83.6019 166° South 164 189 6,200 750 Climbing FAA TRACON
Tue 07:31:13 AM 41.8381 -83.5972 165° South 158 182 6,400 732 Climbing FAA TRACON
Tue 07:31:33 AM 41.8228 -83.5919 166° South 153 176 6,700 923 Climbing FAA TRACON
Tue 07:31:52 AM 41.8106 -83.5875 165° South 149 171 7,000 450 Climbing FAA TRACON
Tue 07:32:13 AM 41.7972 -83.5822 164° South 151 174 7,000  Level FAA TRACON
Tue 07:32:32 AM 41.7853 -83.5789 168° South 157 181 7,000  Level FAA TRACON
Tue 07:32:52 AM 41.7672 -83.5728 166° South 159 183 7,000  Level FAA TRACON
Tue 07:33:13 AM 41.7542 -83.5686 167° South 158 182 7,000  Level FAA TRACON
Tue 07:33:32 AM 41.7433 -83.5653 167° South 158 182 7,000  Level FAA TRACON
Tue 07:33:53 AM 41.7244 -83.5578 163° South 160 184 7,000  Level FAA TRACON
Tue 07:34:12 AM 41.7108 -83.5528 165° South 162 186 7,000  Level FAA TRACON
Tue 07:34:32 AM 41.6972 -83.5483 166° South 164 189 7,000  Level FAA TRACON
Tue 07:34:53 AM 41.6797 -83.5422 165° South 166 191 7,000  Level FAA TRACON
Tue 07:35:12 AM 41.6658 -83.5378 167° South 167 192 7,000  Level FAA TRACON
Tue 07:35:33 AM 41.6533 -83.5339 167° South 169 194 7,000 -450 Level FAA TRACON
Tue 07:35:52 AM 41.6331 -83.5272 166° South 175 201 6,700 -1,077 Descending FAA TRACON
Tue 07:36:12 AM 41.6164 -83.5222 167° South 198 228 6,300 -878 Descending FAA TRACON
Tue 07:36:33 AM 41.6022 -83.5175 166° South 201 231 6,100 -750 Descending FAA TRACON
Tue 07:36:52 AM 41.5781 -83.5094 166° South 204 235 5,800 -600 Descending FAA TRACON
Tue 07:37:13 AM 41.5614 -83.5039 166° South 202 232 5,700 -300 Descending FAA TRACON
Tue 07:37:32 AM 41.5469 -83.4997 168° South 201 231 5,600 -462 Descending FAA TRACON
Tue 07:37:52 AM 41.5250 -83.4906 163° South 196 226 5,400 -600 Descending FAA TRACON
Tue 07:38:12 AM 41.5089 -83.4853 166° South 195 224 5,200 -600 Descending FAA TRACON
Tue 07:38:32 AM 41.4953 -83.4806 165° South 198 228 5,000 -293 Descending FAA TRACON
Tue 07:38:53 AM 41.4717 -83.4733 167° South 197 227 5,000  Level FAA TRACON
Tue 07:39:12 AM 41.4581 -83.4681 164° South 193 222 5,000  Level FAA TRACON
Tue 07:39:33 AM 41.4389 -83.4600 163° South 190 219 5,000 -150 Level FAA TRACON
Tue 07:39:52 AM 41.4239 -83.4547 165° South 186 214 4,900 -154 Descending FAA TRACON
Tue 07:40:12 AM 41.4086 -83.4506 168° South 185 213 4,900  Level FAA TRACON
Tue 07:40:33 AM 41.3894 -83.4458 170° South 182 209 4,900  Level FAA TRACON
Tue 07:40:52 AM 41.3739 -83.4394 163° South 186 214 4,900  Level FAA TRACON
Tue 07:41:13 AM 41.3544 -83.4325 165° South 187 215 4,900  Level FAA TRACON
Tue 07:41:32 AM 41.3389 -83.4272 166° South 187 215 4,900  Level FAA TRACON
Tue 07:43:00 AM 41.2921 -83.4029 166° South  Level FlightAware
Tue 07:50:00 AM 40.9927 -83.3031 166° South  Level FlightAware
Tue 07:51:00 AM 40.9498 -83.2895 167° South  Level FlightAware
Tue 07:52:00 AM 40.9069 -83.2759 167° South  Level FlightAware
Tue 07:53:00 AM 40.8640 -83.2625 167° South  Level FlightAware
Tue 07:54:00 AM 40.8211 -83.2490 167° South  Level FlightAware
Tue 07:55:00 AM 40.7782 -83.2356 167° South  Level FlightAware
Tue 07:56:00 AM 40.7353 -83.2221 167° South  Level FlightAware
Tue 07:57:00 AM 40.6924 -83.2087 167° South  Level FlightAware
Tue 07:58:00 AM 40.6494 -83.1953 167° South  Level FlightAware
Tue 07:59:00 AM 40.6065 -83.1820 167° South  Level FlightAware
Tue 07:59:38 AM 40.4792 -83.1433 166° South 170 196 4,900  Level Indianapolis Center
Tue 08:00:00 AM 40.5636 -83.1686 167° South  Level FlightAware
Tue 08:00:22 AM 40.4394 -83.1328 169° South 171 197 4,900  Level Indianapolis Center
Tue 08:00:40 AM 40.4319 -83.1272 151° Southeast 173 199 4,900  Level Indianapolis Center
Tue 08:01:00 AM 40.5207 -83.1553 167° South  Level FlightAware
Tue 08:01:23 AM 40.3925 -83.1164 168° South 168 193 4,900  Level Indianapolis Center
Tue 08:01:41 AM 40.3861 -83.1122 154° Southeast 169 194 4,900 98 Level Indianapolis Center
Tue 08:02:00 AM 40.4778 -83.1420 167° South  Level FlightAware
Tue 08:02:24 AM 40.3453 -83.1025 170° South 170 196 5,000  Level Indianapolis Center
Tue 08:02:42 AM 40.3400 -83.0978 146° Southeast 168 193 4,900 -400 Descending Indianapolis Center
Tue 08:03:00 AM 40.4349 -83.1283 166° South  Level FlightAware
Tue 08:03:24 AM 40.3036 -83.0703 150° Southeast 200 230 4,600  Level Indianapolis Center
Tue 08:03:44 AM 40.2975 -83.0594 126° Southeast 189 217 4,500 -590 Descending Indianapolis Center
Tue 08:04:00 AM 40.3922 -83.1139 166° South  Level FlightAware
Tue 08:04:25 AM 40.2681 -83.0089 127° Southeast 227 261 4,000  Level Indianapolis Center
Tue 08:04:45 AM 40.2625 -82.9925 114° Southeast 212 244 3,900 -98 Descending Indianapolis Center
Tue 08:05:26 AM 40.2347 -82.9422 126° Southeast 218 251 3,900  Level Indianapolis Center
Tue 08:05:46 AM 40.2236 -82.9167 120° Southeast 215 247 3,900  Level Indianapolis Center
Tue 08:06:26 AM 40.2008 -82.8864 135° Southeast 199 229 3,900  Level Indianapolis Center
Tue 08:06:48 AM 40.1814 -82.8739 154° Southeast 202 232 3,900  Level Indianapolis Center
Tue 08:07:27 AM 40.1503 -82.8589 160° South 178 205 3,900  Level Indianapolis Center
Tue 08:07:49 AM 40.1339 -82.8478 153° Southeast 189 217 3,900  Level Indianapolis Center
Tue 08:08:51 AM 40.0908 -82.8239 157° South 178 205 3,900  Level Indianapolis Center
Tue 08:09:34 AM 40.0594 -82.8106 162° South 164 189 3,900  Level Indianapolis Center
Tue 08:09:52 AM 40.0475 -82.8067 166° South 168 193 3,900 -197 Level Indianapolis Center
Tue 08:10:35 AM 40.0156 -82.8083 182° South 152 175 3,700 -295 Descending Indianapolis Center
Tue 08:10:53 AM 40.0039 -82.8058 171° South 160 184 3,600 -492 Descending Indianapolis Center
Tue 08:11:36 AM 39.9717 -82.8086 184° South 161 185 3,200 -581 Descending Indianapolis Center
Tue 08:11:55 AM 39.9597 -82.8094 183° South 157 181 3,000 -500 Descending Indianapolis Center
Tue 08:12:36 AM 39.9350 -82.8264 208° Southwest 131 151 2,700 -393 Descending Indianapolis Center
Tue 08:12:56 AM 39.9242 -82.8292 191° South 146 168 2,600 -545 Descending Indianapolis Center
Tue 08:13:31 AM 39.9044 -82.8419 206° Southwest 129 148 2,200 -581 Descending Indianapolis Center
Tue 08:13:58 AM 39.8914 -82.8503 206° Southwest 136 157 2,000 -393 Descending Indianapolis Center
Tue 08:14:32 AM 39.8736 -82.8656 213° Southwest 126 145 1,800 -393 Descending Indianapolis Center
Tue 08:14:59 AM 39.8622 -82.8753 213° Southwest 130 150 1,600 -492 Descending Indianapolis Center
Tue 08:15:33 AM 39.8467 -82.8925 220° Southwest 148 170 1,300 -492 Descending Indianapolis Center
Tue 08:16:00 AM 39.8361 -82.9000 209° Southwest 123 142 1,100 -202 Descending Indianapolis Center
Tue 08:17:02 AM 39.8125 -82.9228 217° Southwest 121 139 1,000 -97 Descending Indianapolis Center

Login

Don't have an account? Register now (free) for customized features, flight alerts, and more!